createdAt,value
2019-06-07T00:00:52.656Z,58.14
2019-06-07T00:03:27.442Z,58.35
2019-06-07T00:05:50.722Z,58.22
2019-06-07T00:08:26.969Z,58.27
2019-06-07T00:10:48.771Z,58.36
2019-06-07T00:13:20.223Z,58.36
2019-06-07T00:15:47.768Z,58.05
2019-06-07T00:18:20.976Z,58.06
2019-06-07T00:20:45.858Z,58.01
2019-06-07T00:23:17.228Z,57.83
2019-06-07T00:25:43.880Z,57.94
2019-06-07T00:28:13.238Z,58.06
2019-06-07T00:30:51.203Z,57.98
2019-06-07T00:33:16.612Z,58.00
2019-06-07T00:35:42.122Z,57.97
2019-06-07T00:38:11.793Z,57.98
2019-06-07T00:40:40.174Z,57.89
2019-06-07T00:43:08.323Z,57.99
2019-06-07T00:45:36.499Z,57.95
2019-06-07T00:48:04.715Z,58.03
2019-06-07T00:50:32.917Z,57.99
2019-06-07T00:53:26.946Z,58.03
2019-06-07T00:55:30.917Z,58.08
2019-06-07T00:57:59.049Z,58.02
2019-06-07T01:00:27.236Z,58.04
2019-06-07T01:02:55.376Z,57.89
2019-06-07T01:05:31.102Z,57.91
2019-06-07T01:07:53.392Z,57.97
2019-06-07T01:10:50.164Z,57.96
2019-06-07T01:12:51.700Z,58.05
2019-06-07T01:15:28.558Z,57.98
2019-06-07T01:18:33.111Z,58.00
2019-06-07T01:20:24.831Z,58.04
2019-06-07T01:22:53.352Z,58.03
2019-06-07T01:25:23.818Z,57.99
2019-06-07T01:27:51.614Z,57.88
2019-06-07T01:30:23.752Z,58.13
2019-06-07T01:32:49.975Z,57.91
2019-06-07T01:35:20.216Z,57.96
2019-06-07T01:37:47.965Z,57.97
2019-06-07T01:40:19.563Z,57.90
2019-06-07T01:42:46.938Z,58.24
2019-06-07T01:45:17.926Z,57.93
2019-06-07T01:47:45.412Z,57.77
2019-06-07T01:50:13.951Z,57.86
2019-06-07T01:52:42.127Z,57.95
2019-06-07T01:55:10.626Z,57.75
2019-06-07T01:57:48.138Z,58.01
2019-06-07T02:00:10.633Z,58.18
2019-06-07T02:02:38.779Z,57.86
2019-06-07T02:05:11.678Z,57.91
2019-06-07T02:07:39.940Z,57.87
2019-06-07T02:10:09.637Z,57.80
2019-06-07T02:12:43.278Z,57.92
2019-06-07T02:15:08.645Z,57.95
2019-06-07T02:17:36.877Z,57.96
2019-06-07T02:20:06.208Z,57.92
2019-06-07T02:22:34.448Z,57.78
2019-06-07T02:25:34.969Z,57.95
2019-06-07T02:27:32.889Z,57.78
2019-06-07T02:30:35.133Z,57.99
2019-06-07T02:32:36.712Z,57.76
2019-06-07T02:35:04.707Z,57.65
2019-06-07T02:37:36.547Z,57.96
2019-06-07T02:40:02.879Z,57.96
2019-06-07T02:42:38.964Z,57.82
2019-06-07T02:45:00.955Z,57.66
2019-06-07T02:47:32.308Z,57.92
2019-06-07T02:49:58.943Z,57.93
2019-06-07T02:52:29.302Z,57.83
2019-06-07T02:54:56.939Z,57.65
2019-06-07T02:57:28.314Z,57.81
2019-06-07T03:00:16.550Z,57.82
2019-06-07T03:02:26.661Z,57.79
2019-06-07T03:04:54.814Z,57.77
2019-06-07T03:07:23.738Z,57.83
2019-06-07T03:09:52.432Z,57.73
2019-06-07T03:12:22.428Z,57.73
2019-06-07T03:14:52.888Z,57.84
2019-06-07T03:17:40.875Z,57.52
2019-06-07T03:20:10.482Z,57.75
2019-06-07T03:22:42.003Z,57.53
2019-06-07T03:25:10.208Z,57.83
2019-06-07T03:27:48.302Z,58.31
2019-06-07T03:30:36.233Z,57.12
2019-06-07T03:32:46.294Z,56.85
2019-06-07T03:35:07.691Z,56.83
2019-06-07T03:37:40.751Z,56.99
2019-06-07T03:40:07.029Z,57.51
2019-06-07T03:42:39.719Z,58.03
2019-06-07T03:45:06.056Z,57.39
2019-06-07T03:47:36.513Z,56.82
2019-06-07T03:50:04.738Z,56.86
2019-06-07T03:52:35.624Z,65.74
2019-06-07T03:55:02.819Z,59.70
2019-06-07T03:58:28.624Z,58.68
2019-06-07T04:00:00.860Z,57.81
2019-06-07T04:02:30.383Z,56.75
2019-06-07T04:04:58.958Z,56.97
2019-06-07T04:07:28.973Z,57.47
2019-06-07T04:09:56.950Z,72.94
2019-06-07T04:12:25.114Z,74.03
2019-06-07T04:14:53.269Z,57.98
2019-06-07T04:17:21.427Z,55.95
2019-06-07T04:19:49.611Z,68.94
2019-06-07T04:22:17.742Z,75.28
2019-06-07T04:24:45.958Z,66.64
2019-06-07T04:27:14.137Z,56.71
2019-06-07T04:30:05.355Z,66.05
2019-06-07T04:32:12.215Z,76.85
2019-06-07T04:34:43.157Z,80.45
2019-06-07T04:37:10.746Z,81.45
2019-06-07T04:39:44.650Z,82.58
2019-06-07T04:42:10.865Z,78.94
2019-06-07T04:44:42.607Z,81.10
2019-06-07T04:47:12.387Z,81.52
2019-06-07T04:49:44.241Z,63.16
2019-06-07T04:52:13.903Z,72.91
2019-06-07T04:54:45.936Z,75.97
2019-06-07T04:57:11.873Z,73.54
2019-06-07T05:00:10.932Z,77.16
2019-06-07T05:02:09.924Z,73.67
2019-06-07T05:04:39.783Z,78.57
2019-06-07T05:07:08.196Z,71.79
2019-06-07T05:09:40.470Z,65.53
2019-06-07T05:12:06.369Z,76.26
2019-06-07T05:14:36.579Z,58.64
2019-06-07T05:17:04.405Z,68.76
2019-06-07T05:19:35.255Z,57.16
2019-06-07T05:22:05.085Z,76.28
2019-06-07T05:24:35.581Z,58.85
2019-06-07T05:27:02.162Z,57.12
2019-06-07T05:29:30.792Z,72.06
2019-06-07T05:31:59.078Z,57.66
2019-06-07T05:34:27.251Z,69.28
2019-06-07T05:37:11.209Z,74.64
2019-06-07T05:39:25.209Z,59.42
2019-06-07T05:41:53.343Z,74.20
2019-06-07T05:44:21.482Z,59.56
2019-06-07T05:46:49.598Z,61.29
2019-06-07T05:49:17.743Z,68.78
2019-06-07T05:51:45.947Z,71.80
2019-06-07T05:54:14.053Z,59.91
2019-06-07T05:56:43.251Z,61.27
2019-06-07T05:59:12.102Z,74.84
2019-06-07T06:01:53.382Z,62.92
2019-06-07T06:04:10.120Z,75.14
2019-06-07T06:06:39.500Z,73.06
2019-06-07T06:09:13.879Z,71.94
2019-06-07T06:11:49.507Z,76.21
2019-06-07T06:14:08.664Z,75.17
2019-06-07T06:16:37.214Z,74.99
2019-06-07T06:19:05.493Z,75.37
2019-06-07T06:21:33.720Z,75.96
2019-06-07T06:24:01.901Z,71.99
2019-06-07T06:26:30.083Z,72.47
2019-06-07T06:28:58.397Z,59.43
2019-06-07T06:31:26.629Z,63.93
2019-06-07T06:33:54.754Z,67.70
2019-06-07T06:36:23.137Z,62.96
2019-06-07T06:38:51.647Z,64.88
2019-06-07T06:41:21.108Z,64.88
2019-06-07T06:43:52.119Z,62.71
2019-06-07T06:46:37.493Z,58.17
2019-06-07T06:48:54.969Z,64.74
2019-06-07T06:51:19.042Z,57.50
2019-06-07T06:53:49.965Z,57.34
2019-06-07T06:56:17.118Z,63.53
2019-06-07T06:59:35.225Z,58.09
2019-06-07T07:01:15.146Z,58.09
2019-06-07T07:04:00.092Z,61.51
2019-06-07T07:06:25.792Z,63.50
2019-06-07T07:08:47.868Z,62.63
2019-06-07T07:11:15.077Z,62.63
2019-06-07T07:13:45.331Z,63.15
2019-06-07T07:16:13.106Z,56.21
2019-06-07T07:18:41.776Z,58.44
2019-06-07T07:21:10.100Z,55.99
2019-06-07T07:23:38.258Z,55.72
2019-06-07T07:26:06.368Z,56.37
2019-06-07T07:28:34.460Z,55.33
2019-06-07T07:31:02.657Z,56.18
2019-06-07T07:34:20.912Z,54.72
2019-06-07T07:36:37.386Z,55.33
2019-06-07T07:38:29.731Z,55.27
2019-06-07T07:41:13.321Z,54.89
2019-06-07T07:43:27.944Z,53.30
2019-06-07T07:46:02.191Z,55.02
2019-06-07T07:48:25.986Z,54.13
2019-06-07T07:51:00.092Z,55.56
2019-06-07T07:53:23.275Z,53.90
2019-06-07T07:55:54.937Z,55.29
2019-06-07T07:58:21.223Z,53.97
2019-06-07T08:00:54.942Z,52.85
2019-06-07T08:03:18.577Z,52.31
2019-06-07T08:05:47.597Z,52.13
2019-06-07T08:08:16.640Z,51.39
2019-06-07T08:10:44.792Z,48.88
2019-06-07T08:13:24.699Z,47.78
2019-06-07T08:15:41.871Z,52.15
2019-06-07T08:18:10.129Z,52.61
2019-06-07T08:20:38.235Z,49.83
2019-06-07T08:23:08.477Z,45.98
2019-06-07T08:25:35.350Z,46.90
2019-06-07T08:28:03.552Z,52.66
2019-06-07T08:30:51.292Z,51.51
2019-06-07T08:33:24.653Z,49.86
2019-06-07T08:36:03.267Z,46.10
2019-06-07T08:38:26.429Z,44.26
2019-06-07T08:40:29.519Z,47.32
2019-06-07T08:43:15.110Z,45.21
2019-06-07T08:45:26.692Z,50.27
2019-06-07T08:47:58.181Z,49.70
2019-06-07T08:50:23.666Z,48.37
2019-06-07T08:52:56.311Z,46.39
2019-06-07T08:55:20.856Z,45.32
2019-06-07T08:57:48.990Z,50.65
2019-06-07T09:00:43.300Z,47.95
2019-06-07T09:02:47.631Z,49.85
2019-06-07T09:05:16.651Z,48.11
2019-06-07T09:07:44.827Z,49.35
2019-06-07T09:10:15.465Z,44.86
2019-06-07T09:12:43.998Z,45.42
2019-06-07T09:15:21.231Z,46.07
2019-06-07T09:18:29.311Z,44.05
2019-06-07T09:20:35.011Z,44.33
2019-06-07T09:22:43.310Z,44.10
2019-06-07T09:25:20.760Z,44.06
2019-06-07T09:27:42.101Z,42.03
2019-06-07T09:30:18.667Z,45.07
2019-06-07T09:32:42.773Z,43.94
2019-06-07T09:35:16.996Z,42.97
2019-06-07T09:38:07.749Z,44.60
2019-06-07T09:40:25.226Z,44.52
2019-06-07T09:42:41.107Z,38.41
2019-06-07T09:45:13.875Z,42.99
2019-06-07T09:47:39.490Z,43.86
2019-06-07T09:50:11.417Z,43.02
2019-06-07T09:52:57.272Z,38.01
2019-06-07T09:55:23.136Z,41.17
2019-06-07T09:57:37.489Z,39.69
2019-06-07T10:00:37.042Z,39.30
2019-06-07T10:02:39.256Z,38.44
2019-06-07T10:05:13.470Z,45.67
2019-06-07T10:07:37.282Z,37.97
2019-06-07T10:12:35.828Z,36.42
2019-06-07T10:15:05.360Z,39.07
2019-06-07T10:17:33.572Z,37.88
2019-06-07T10:20:02.533Z,40.16
2019-06-07T10:22:31.652Z,36.97
2019-06-07T10:24:59.830Z,40.01
2019-06-07T10:27:27.986Z,37.09
2019-06-07T10:29:56.202Z,37.21
2019-06-07T10:32:24.375Z,40.13
2019-06-07T10:34:52.481Z,38.95
2019-06-07T10:37:20.673Z,36.61
2019-06-07T10:39:49.476Z,42.45
2019-06-07T10:42:17.642Z,35.58
2019-06-07T10:44:45.950Z,34.98
2019-06-07T10:47:14.088Z,34.68
2019-06-07T10:49:42.213Z,36.92
2019-06-07T10:52:11.688Z,32.12
2019-06-07T10:54:40.408Z,35.10
2019-06-07T10:57:12.144Z,36.70
2019-06-07T10:59:38.493Z,32.48
2019-06-07T11:02:07.932Z,36.00
2019-06-07T11:04:36.136Z,35.73
2019-06-07T11:07:05.016Z,32.90
2019-06-07T11:09:34.480Z,34.69
2019-06-07T11:12:04.227Z,35.83
2019-06-07T11:14:32.708Z,34.63
2019-06-07T11:17:01.041Z,30.63
2019-06-07T11:19:29.212Z,37.86
2019-06-07T11:21:57.342Z,36.74
2019-06-07T11:24:25.584Z,30.06
2019-06-07T11:26:53.798Z,38.02
2019-06-07T11:29:22.073Z,33.67
2019-06-07T11:31:50.250Z,32.42
2019-06-07T11:34:18.909Z,36.08
2019-06-07T11:36:47.226Z,35.27
2019-06-07T11:39:15.326Z,34.35
2019-06-07T11:41:43.520Z,27.41
2019-06-07T11:44:12.880Z,31.03
2019-06-07T11:46:41.323Z,30.19
2019-06-07T11:49:10.881Z,32.90
2019-06-07T11:51:39.554Z,31.24
2019-06-07T11:54:07.895Z,35.64
2019-06-07T11:56:36.222Z,35.76
2019-06-07T11:59:04.447Z,30.03
2019-06-07T12:01:32.637Z,32.68
2019-06-07T12:04:00.877Z,32.50
2019-06-07T12:06:29.206Z,29.80
2019-06-07T12:08:57.325Z,32.59
2019-06-07T12:11:25.531Z,33.18
2019-06-07T12:13:53.859Z,31.33
2019-06-07T12:16:21.962Z,30.22
2019-06-07T12:18:50.357Z,25.54
2019-06-07T12:21:19.892Z,30.51
2019-06-07T12:23:48.231Z,30.84
2019-06-07T12:26:16.646Z,28.12
2019-06-07T12:28:44.883Z,37.57
2019-06-07T12:31:13.141Z,32.00
2019-06-07T12:33:41.275Z,29.61
2019-06-07T12:36:09.489Z,29.13
2019-06-07T12:38:37.797Z,28.20
2019-06-07T12:41:06.150Z,29.53
2019-06-07T12:43:34.354Z,30.39
2019-06-07T12:46:02.654Z,30.21
2019-06-07T12:48:30.941Z,29.25
2019-06-07T12:50:59.254Z,34.09
2019-06-07T12:53:28.265Z,28.95
2019-06-07T12:55:55.706Z,30.60
2019-06-07T12:58:31.019Z,32.34
2019-06-07T13:00:53.756Z,27.38
2019-06-07T13:03:22.606Z,31.38
2019-06-07T13:05:50.985Z,28.18
2019-06-07T13:08:19.806Z,26.42
2019-06-07T13:10:48.195Z,31.97
2019-06-07T13:13:17.842Z,32.97
2019-06-07T13:15:46.159Z,28.50
2019-06-07T13:18:15.624Z,28.21
2019-06-07T13:20:44.271Z,26.92
2019-06-07T13:23:12.401Z,26.61
2019-06-07T13:25:46.100Z,26.04
2019-06-07T13:28:10.755Z,28.01
2019-06-07T13:30:38.896Z,26.73
2019-06-07T13:33:08.115Z,29.46
2019-06-07T13:35:36.212Z,25.44
2019-06-07T13:38:04.539Z,27.08
2019-06-07T13:40:32.699Z,30.25
2019-06-07T13:43:00.952Z,32.69
2019-06-07T13:45:29.201Z,29.65
2019-06-07T13:47:57.442Z,29.59
2019-06-07T13:50:26.058Z,30.67
2019-06-07T13:52:54.239Z,37.47
2019-06-07T13:55:23.850Z,37.47
2019-06-07T13:57:52.122Z,35.36
2019-06-07T14:00:21.585Z,31.18
2019-06-07T14:02:50.380Z,32.57
2019-06-07T14:05:18.789Z,32.32
2019-06-07T14:07:47.109Z,31.01
2019-06-07T14:10:15.350Z,32.94
2019-06-07T14:12:43.524Z,31.22
2019-06-07T14:15:13.604Z,32.84
2019-06-07T14:17:41.882Z,33.65
2019-06-07T14:20:10.797Z,33.13
2019-06-07T14:22:39.392Z,31.73
2019-06-07T14:25:07.935Z,32.43
2019-06-07T14:27:36.147Z,32.57
2019-06-07T14:30:05.406Z,32.38
2019-06-07T14:32:33.535Z,32.67
2019-06-07T14:35:01.687Z,34.26
2019-06-07T14:37:30.932Z,33.81
2019-06-07T14:39:59.340Z,35.63
2019-06-07T14:42:27.534Z,33.34
2019-06-07T14:44:56.035Z,31.99
2019-06-07T14:47:24.166Z,31.94
2019-06-07T14:49:52.318Z,32.80
2019-06-07T14:52:20.551Z,36.39
2019-06-07T14:54:48.888Z,35.43
2019-06-07T14:57:17.071Z,34.63
2019-06-07T14:59:45.174Z,36.56
2019-06-07T15:02:13.527Z,33.65
2019-06-07T15:04:43.428Z,32.98
2019-06-07T15:07:14.268Z,33.21
2019-06-07T15:09:42.497Z,34.53
2019-06-07T15:12:24.122Z,34.26
2019-06-07T15:14:40.589Z,34.19
2019-06-07T15:17:08.816Z,33.17
2019-06-07T15:19:37.003Z,34.59
2019-06-07T15:22:05.076Z,32.34
2019-06-07T15:24:36.140Z,32.79
2019-06-07T15:27:03.328Z,31.92
2019-06-07T15:29:31.834Z,32.32
2019-06-07T15:31:59.982Z,34.32
2019-06-07T15:34:29.220Z,33.29
2019-06-07T15:36:58.304Z,33.84
2019-06-07T15:39:26.541Z,34.65
2019-06-07T15:41:54.666Z,34.14
2019-06-07T15:44:22.926Z,33.73
2019-06-07T15:46:51.137Z,33.66
2019-06-07T15:49:19.291Z,32.93
2019-06-07T15:51:47.463Z,36.24
2019-06-07T15:54:15.641Z,33.75
2019-06-07T15:56:43.902Z,34.66
2019-06-07T15:59:12.157Z,32.73
2019-06-07T16:01:41.904Z,33.87
2019-06-07T16:04:10.361Z,33.92
2019-06-07T16:06:40.395Z,35.30
2019-06-07T16:09:09.057Z,33.30
2019-06-07T16:11:38.915Z,33.93
2019-06-07T16:14:07.129Z,33.47
2019-06-07T16:16:35.413Z,34.57
2019-06-07T16:19:03.565Z,32.76
2019-06-07T16:21:33.159Z,33.94
2019-06-07T16:24:01.691Z,32.87
2019-06-07T16:26:29.857Z,32.26
2019-06-07T16:28:58.340Z,33.08
2019-06-07T16:31:26.535Z,34.71
2019-06-07T16:33:54.651Z,33.94
2019-06-07T16:36:22.824Z,33.26
2019-06-07T16:38:50.966Z,35.54
2019-06-07T16:41:19.177Z,36.82
2019-06-07T16:43:47.273Z,41.02
2019-06-07T16:46:15.422Z,34.73
2019-06-07T16:48:44.935Z,34.15
2019-06-07T16:51:13.290Z,36.92
2019-06-07T16:53:42.364Z,35.66
2019-06-07T16:56:10.617Z,33.56
2019-06-07T16:58:39.915Z,33.37
2019-06-07T17:01:08.352Z,32.80
2019-06-07T17:03:37.297Z,32.79
2019-06-07T17:06:05.546Z,32.85
2019-06-07T17:08:33.664Z,32.61
2019-06-07T17:11:01.809Z,32.55
2019-06-07T17:13:33.455Z,34.11
2019-06-07T17:15:59.782Z,33.29
2019-06-07T17:18:27.937Z,33.67
2019-06-07T17:20:56.050Z,33.24
2019-06-07T17:23:24.208Z,33.29
2019-06-07T17:25:52.357Z,33.27
2019-06-07T17:28:20.508Z,33.38
2019-06-07T17:30:50.186Z,33.76
2019-06-07T17:33:18.599Z,34.55
2019-06-07T17:35:46.736Z,33.74
2019-06-07T17:38:14.853Z,33.38
2019-06-07T17:40:43.078Z,33.16
2019-06-07T17:43:11.256Z,33.61
2019-06-07T17:45:39.432Z,34.31
2019-06-07T17:48:08.783Z,33.92
2019-06-07T17:50:35.923Z,35.98
2019-06-07T17:53:04.038Z,34.82
2019-06-07T17:55:32.311Z,34.24
2019-06-07T17:58:00.405Z,34.09
2019-06-07T18:00:45.173Z,34.85
2019-06-07T18:03:13.307Z,38.12
2019-06-07T18:05:43.086Z,36.00
2019-06-07T18:08:11.698Z,35.13
2019-06-07T18:10:40.615Z,35.99
2019-06-07T18:13:08.776Z,36.28
2019-06-07T18:15:40.658Z,35.30
2019-06-07T18:18:10.260Z,35.02
2019-06-07T18:20:39.674Z,35.01
2019-06-07T18:23:06.930Z,35.30
2019-06-07T18:25:35.017Z,35.43
2019-06-07T18:28:03.179Z,36.35
2019-06-07T18:30:31.352Z,36.87
2019-06-07T18:32:59.474Z,36.36
2019-06-07T18:35:27.592Z,36.87
2019-06-07T18:37:55.731Z,36.45
2019-06-07T18:40:23.935Z,36.61
2019-06-07T18:42:53.240Z,37.47
2019-06-07T18:45:21.526Z,38.04
2019-06-07T18:47:49.700Z,37.47
2019-06-07T18:50:17.877Z,37.32
2019-06-07T18:52:46.683Z,37.47
2019-06-07T18:55:15.277Z,37.90
2019-06-07T18:57:43.465Z,37.81
2019-06-07T19:00:12.047Z,38.06
2019-06-07T19:02:40.223Z,38.36
2019-06-07T19:05:09.475Z,48.10
2019-06-07T19:07:37.709Z,46.31
2019-06-07T19:10:06.928Z,52.11
2019-06-07T19:12:35.174Z,55.56
2019-06-07T19:15:03.409Z,57.76
2019-06-07T19:17:31.577Z,56.81
2019-06-07T19:20:00.699Z,61.82
2019-06-07T19:22:28.916Z,66.40
2019-06-07T19:24:58.388Z,67.47
2019-06-07T19:27:26.726Z,74.31
2019-06-07T19:29:55.266Z,73.75
2019-06-07T19:32:23.395Z,72.92
2019-06-07T19:34:53.183Z,73.04
2019-06-07T19:37:21.490Z,74.43
2019-06-07T19:39:49.644Z,71.44
2019-06-07T19:42:17.929Z,67.77
2019-06-07T19:44:54.575Z,70.25
2019-06-07T19:47:16.156Z,69.63
2019-06-07T19:49:44.618Z,70.97
2019-06-07T19:52:12.808Z,69.30
2019-06-07T19:54:40.949Z,67.52
2019-06-07T19:57:09.057Z,69.75
2019-06-07T19:59:37.391Z,67.77
2019-06-07T20:02:05.508Z,59.61
2019-06-07T20:04:33.667Z,60.12
2019-06-07T20:07:03.915Z,62.29
2019-06-07T20:09:31.670Z,69.99
2019-06-07T20:12:00.746Z,71.44
2019-06-07T20:14:29.105Z,68.50
2019-06-07T20:16:57.362Z,71.48
2019-06-07T20:19:25.564Z,67.35
2019-06-07T20:21:53.759Z,67.97
2019-06-07T20:24:27.044Z,60.31
2019-06-07T20:26:51.761Z,61.61
2019-06-07T20:29:25.765Z,62.49
2019-06-07T20:31:50.064Z,58.80
2019-06-07T20:34:18.293Z,55.43
2019-06-07T20:36:46.965Z,54.45
2019-06-07T20:39:15.254Z,54.14
2019-06-07T20:41:43.623Z,53.36
2019-06-07T20:44:12.085Z,53.10
2019-06-07T20:46:40.253Z,52.63
2019-06-07T20:49:08.530Z,52.93
2019-06-07T20:51:36.694Z,52.87
2019-06-07T20:54:05.590Z,53.05
2019-06-07T20:56:34.132Z,52.93
2019-06-07T20:59:02.794Z,53.02
2019-06-07T21:01:31.086Z,53.68
2019-06-07T21:03:59.307Z,59.01
2019-06-07T21:06:27.467Z,54.30
2019-06-07T21:08:55.615Z,57.79
2019-06-07T21:11:23.785Z,56.47
2019-06-07T21:13:51.953Z,63.03
2019-06-07T21:16:20.160Z,55.54
2019-06-07T21:18:48.407Z,60.10
2019-06-07T21:21:16.561Z,56.44
2019-06-07T21:23:44.695Z,55.47
2019-06-07T21:26:12.893Z,55.32
2019-06-07T21:28:41.171Z,55.29
2019-06-07T21:31:10.451Z,55.50
2019-06-07T21:33:38.984Z,55.04
2019-06-07T21:36:08.208Z,55.12
2019-06-07T21:38:36.543Z,54.85
2019-06-07T21:41:06.117Z,60.66
2019-06-07T21:43:34.523Z,57.75
2019-06-07T21:46:07.233Z,57.35
2019-06-07T21:48:32.986Z,58.41
2019-06-07T21:51:02.179Z,56.95
2019-06-07T21:53:30.555Z,55.68
2019-06-07T21:55:58.824Z,57.90
2019-06-07T21:58:27.316Z,56.30
2019-06-07T22:01:16.577Z,55.68
2019-06-07T22:03:44.752Z,55.73
2019-06-07T22:06:13.776Z,55.68
2019-06-07T22:08:42.130Z,55.72
2019-06-07T22:11:10.337Z,55.58
2019-06-07T22:13:38.539Z,64.56
2019-06-07T22:16:21.385Z,61.94
2019-06-07T22:18:36.598Z,69.74
2019-06-07T22:21:04.774Z,58.14
2019-06-07T22:23:33.012Z,58.08
2019-06-07T22:26:01.236Z,56.70
2019-06-07T22:28:29.488Z,56.45
2019-06-07T22:30:57.726Z,56.54
2019-06-07T22:33:25.966Z,56.83
2019-06-07T22:35:54.183Z,56.34
2019-06-07T22:38:22.346Z,56.76
2019-06-07T22:40:50.542Z,56.45
2019-06-07T22:43:19.283Z,56.09
2019-06-07T22:45:47.490Z,56.57
2019-06-07T22:48:15.694Z,56.72
2019-06-07T22:50:43.889Z,56.60
2019-06-07T22:53:12.075Z,55.81
2019-06-07T22:55:40.455Z,57.86
2019-06-07T22:58:09.923Z,57.85
2019-06-07T23:00:39.385Z,66.31
2019-06-07T23:03:08.524Z,63.31
2019-06-07T23:05:36.760Z,58.46
2019-06-07T23:08:04.944Z,57.88
2019-06-07T23:10:33.154Z,57.42
2019-06-07T23:13:02.197Z,57.64
2019-06-07T23:15:30.815Z,64.85
2019-06-07T23:17:59.006Z,59.99
2019-06-07T23:20:27.408Z,57.53
2019-06-07T23:22:55.646Z,60.10
2019-06-07T23:25:24.734Z,60.27
2019-06-07T23:27:53.164Z,58.15
2019-06-07T23:30:21.809Z,57.78
2019-06-07T23:32:50.228Z,57.78
2019-06-07T23:35:19.063Z,66.82
2019-06-07T23:37:47.320Z,66.82
2019-06-07T23:40:15.698Z,65.85
2019-06-07T23:42:43.902Z,60.82
2019-06-07T23:45:13.644Z,70.37
2019-06-07T23:47:42.146Z,65.75
2019-06-07T23:50:11.494Z,59.64
2019-06-07T23:52:39.727Z,62.68
2019-06-07T23:55:08.139Z,64.53
2019-06-07T23:57:36.350Z,59.97
